ADDS METAR Data INFO
IDs: Format: Raw Decoded Include TAF

Data at: 2230 UTC 22 Aug 2017

KPRX 222156Z AUTO 23004KT CLR 33/24 A3000 RMK AO2 SLP162 T03280244 PWINO $
KPRX 222056Z AUTO 22005KT CLR 33/23 A3001 RMK AO2 LTG DSNT W SLP165 T03330233 58019 PWINO $
KPRX 221956Z AUTO 24004KT CLR 36/24 A3003 RMK AO2 SLP173 T03560239 PWINO $
KPRX 221856Z AUTO 00000KT SCT046 34/23 A3005 RMK AO2 SLP179 T03390233 PWINO $
KPRX 221756Z AUTO 22006KT FEW039 34/24 A3006 RMK AO2 SLP184 T03390239 10339 20228 58006 PWINO $
KPRX 221656Z AUTO 25006KT CLR 33/24 A3008 RMK AO2 SLP190 T03280244 PWINO $
KPRX 221556Z AUTO 24007KT CLR 32/24 A3009 RMK AO2 SLP192 T03170244 PWINO $
KPRX 221456Z AUTO 24009KT CLR 29/24 A3008 RMK AO2 SLP191 T02940239 51009 PWINO $
KPRX 221356Z AUTO 23007KT CLR 27/24 A3008 RMK AO2 SLP190 T02720239 PWINO $
KPRX 221256Z AUTO 19005KT CLR 26/23 A3007 RMK AO2 SLP186 T02560233 PWINO $
KPRX 221156Z AUTO 19004KT CLR 23/22 A3005 RMK AO2 SLP182 T02280222 10250 20228 53001 PWINO $
KPRX 221056Z AUTO 19003KT CLR 23/22 A3004 RMK AO2 SLP178 T02330222 PWINO $
KPRX 220956Z AUTO 18004KT CLR 23/22 A3004 RMK AO2 SLP177 T02330222 PWINO $
KPRX 220856Z AUTO 19004KT CLR 24/22 A3005 RMK AO2 SLP180 T02390222 55007 PWINO $
KPRX 220756Z AUTO 00000KT CLR 24/22 A3005 RMK AO2 SLP180 T02440222 PWINO $
KPRX 220656Z AUTO 17005KT CLR 24/23 A3006 RMK AO2 SLP185 T02440228 PWINO $
KPRX 220556Z AUTO 16005KT CLR 25/23 A3007 RMK AO2 SLP188 T02500233 10317 20250 403390233 58002 PWINO $
KPRX 220456Z AUTO 15006KT CLR 26/23 A3008 RMK AO2 SLP191 T02560233 PWINO $
KPRX 220356Z AUTO 14005KT CLR 26/24 A3009 RMK AO2 SLP193 T02560239 PWINO $
KPRX 220256Z AUTO 13005KT CLR 26/24 A3008 RMK AO2 SLP190 T02610239 53011 PWINO $
KPRX 220156Z AUTO 14006KT CLR 27/24 A3006 RMK AO2 SLP185 T02670239 PWINO $
KPRX 220056Z AUTO 14006KT CLR 28/24 A3005 RMK AO2 SLP180 T02830239 PWINO $
KPRX 212356Z AUTO 16008KT CLR 32/23 A3005 RMK AO2 SLP179 T03170228 10339 20300 58008 PWINO $
KPRX 212256Z AUTO 16009KT BKN042 33/23 A3006 RMK AO2 SLP182 T03280233 PWINO $
KPRX 212156Z AUTO 18009KT SCT042 33/23 A3006 RMK AO2 SLP184 T03280228 PWINO $
KPRX 212056Z AUTO 15011KT CLR 33/23 A3007 RMK AO2 SLP187 T03330228 58009 PWINO $
KPRX 211956Z AUTO 14008KT CLR 32/23 A3009 RMK AO2 SLP194 T03220233 PWINO $
KPRX 211856Z AUTO 15006KT CLR 31/24 A3010 RMK AO2 SLP196 T03110244 PWINO $
KPRX 211756Z AUTO 18007KT FEW032 31/23 A3010 RMK AO2 SLP197 T03110233 10328 20233 58009 PWINO $
KPRX 211656Z AUTO 19006KT FEW029 32/24 A3012 RMK AO2 SLP202 T03220244 PWINO $
KPRX 211556Z AUTO 22004KT CLR 31/24 A3013 RMK AO2 SLP206 T03060244 PWINO $
KPRX 211456Z AUTO 18004KT CLR 30/24 A3012 RMK AO2 SLP205 T03000244 51012 PWINO $
KPRX 211356Z AUTO 15005KT CLR 28/24 A3012 RMK AO2 SLP203 T02780239 PWINO $
KPRX 211256Z AUTO 13005KT CLR 24/23 A3010 RMK AO2 SLP198 T02440233 PWINO $
KPRX 211156Z AUTO 14005KT CLR 23/23 A3009 RMK AO2 SLP193 T02330228 10244 20233 53004 PWINO $
KPRX 211056Z AUTO 14005KT CLR 23/23 A3008 RMK AO2 SLP188 T02330228 PWINO $